Time;durP1;ratioP1;P1;durP2;ratioP2;P2;SDS_P1;SDS_P2;PMS_P1;PMS_P2;Temp;Humidity;BMP_temperature;BMP_pressure;BME280_temperature;BME280_humidity;BME280_pressure;Samples;Min_cycle;Max_cycle;Signal;HPM_P1;HPM_P2
2022/05/12 00:01:00;;;;;;;;;8.00;8.00;;;;;24.08;34.37;98474.19;6245313;27;97396;-75
2022/05/12 00:04:04;;;;;;;;;10.00;9.60;;;;;24.03;34.30;98471.56;6257360;27;98201;-76
2022/05/12 00:07:08;;;;;;;;;11.00;10.00;;;;;23.98;34.40;98466.22;6257765;27;97754;-75
2022/05/12 00:10:13;;;;;;;;;9.40;9.00;;;;;23.88;34.77;98463.75;6220503;28;97098;-75
2022/05/12 00:13:19;;;;;;;;;9.40;9.00;;;;;23.84;34.73;98471.84;6257460;27;96585;-76
2022/05/12 00:16:22;;;;;;;;;10.50;10.00;;;;;23.74;34.71;98470.19;6254843;27;96995;-76
2022/05/12 00:19:27;;;;;;;;;11.00;9.50;;;;;23.11;34.94;98365.97;6259733;27;96677;-75
2022/05/12 00:22:30;;;;;;;;;10.00;10.00;;;;;23.69;35.06;98461.25;6219819;28;99589;-76
2022/05/12 00:25:34;;;;;;;;;10.00;10.00;;;;;23.67;35.24;98460.75;6221824;27;98509;-75
2022/05/12 00:28:39;;;;;;;;;10.00;8.50;;;;;23.63;35.13;98454.25;6244574;27;96662;-75
2022/05/12 00:31:45;;;;;;;;;10.00;9.80;;;;;23.58;35.04;98452.47;6242251;27;97033;-76
2022/05/12 00:34:48;;;;;;;;;10.40;10.00;;;;;23.53;35.24;98447.09;6226593;27;98469;-75
2022/05/12 00:37:52;;;;;;;;;10.40;10.00;;;;;23.52;35.36;98450.97;6238076;27;97222;-74
2022/05/12 00:40:55;;;;;;;;;9.00;8.60;;;;;23.50;35.12;98449.69;6218708;28;99015;-74
2022/05/12 00:44:05;;;;;;;;;9.80;9.80;;;;;23.48;35.14;98449.97;6244098;27;96746;-75
2022/05/12 00:47:08;;;;;;;;;9.00;8.00;;;;;23.19;34.92;98406.44;6245198;27;98477;-74
2022/05/12 00:50:12;;;;;;;;;9.00;9.00;;;;;23.45;34.99;98449.81;6244772;27;96946;-75
2022/05/12 00:53:16;;;;;;;;;9.00;8.50;;;;;23.33;34.97;98425.59;6244576;27;97309;-75
2022/05/12 00:56:22;;;;;;;;;8.20;8.20;;;;;23.41;35.05;98438.56;6239937;27;96823;-74
2022/05/12 00:59:31;;;;;;;;;9.80;9.00;;;;;23.42;35.30;98444.91;6262816;27;97554;-74
2022/05/12 01:02:36;;;;;;;;;9.00;9.00;;;;;23.38;35.25;98441.16;6249668;27;98021;-74
2022/05/12 01:05:41;;;;;;;;;9.00;9.00;;;;;23.37;35.03;98445.03;6227163;27;96538;-75
2022/05/12 01:08:46;;;;;;;;;9.00;8.00;;;;;23.29;35.32;98452.94;6227374;27;97614;-74
2022/05/12 01:11:49;;;;;;;;;9.00;8.20;;;;;23.29;34.86;98452.13;6255060;27;98614;-75
2022/05/12 01:14:54;;;;;;;;;8.40;8.00;;;;;23.22;35.17;98449.00;6229237;27;98470;-74
2022/05/12 01:18:03;;;;;;;;;9.00;9.00;;;;;23.14;35.29;98445.06;6235869;27;97786;-75
2022/05/12 01:21:08;;;;;;;;;10.00;9.00;;;;;23.10;35.37;98440.53;6238027;27;97104;-75
2022/05/12 01:24:14;;;;;;;;;9.00;8.00;;;;;23.14;35.47;98439.59;6237265;27;97005;-75
2022/05/12 01:27:20;;;;;;;;;9.00;9.00;;;;;23.17;35.24;98436.19;6231377;27;97015;-76
2022/05/12 01:30:25;;;;;;;;;10.00;9.00;;;;;23.16;35.24;98431.84;6204781;28;99577;-74
2022/05/12 01:33:28;;;;;;;;;10.25;10.00;;;;;23.16;35.24;98431.84;6213856;27;96982;-73
2022/05/12 01:36:32;;;;;;;;;9.00;8.00;;;;;23.13;34.99;98426.94;6240675;27;96873;-75
2022/05/12 01:39:37;;;;;;;;;9.00;9.00;;;;;23.12;35.31;98430.81;6251114;27;97511;-74
2022/05/12 01:42:41;;;;;;;;;7.40;7.40;;;;;23.13;35.26;98426.13;6239112;27;97484;-74
2022/05/12 01:45:45;;;;;;;;;6.60;6.20;;;;;23.08;34.96;98424.31;6244806;27;98280;-74
2022/05/12 01:48:48;;;;;;;;;10.25;9.00;;;;;23.11;34.87;98426.47;6209339;28;96830;-74
2022/05/12 01:51:53;;;;;;;;;8.00;8.00;;;;;23.13;34.79;98418.69;6236622;27;96820;-74
2022/05/12 01:54:58;;;;;;;;;9.00;8.50;;;;;22.89;34.53;98382.50;6216252;27;97046;-74
2022/05/12 01:58:01;;;;;;;;;7.60;7.60;;;;;23.10;34.65;98427.59;6226388;27;98364;-76
2022/05/12 02:01:06;;;;;;;;;8.60;8.60;;;;;23.07;34.67;98424.63;6241808;27;98056;-75
2022/05/12 02:04:09;;;;;;;;;8.00;7.00;;;;;23.07;34.77;98422.69;6218106;27;98258;-77
2022/05/12 02:07:13;;;;;;;;;8.00;7.50;;;;;23.05;34.98;98424.16;6231519;27;99309;-76
2022/05/12 02:10:20;;;;;;;;;7.00;7.00;;;;;23.03;35.05;98415.41;6259058;27;97242;-76
2022/05/12 02:13:27;;;;;;;;;8.00;7.40;;;;;22.99;34.65;98420.72;6238712;27;97471;-76
2022/05/12 02:16:30;;;;;;;;;9.00;9.00;;;;;23.03;34.92;98420.91;6224504;27;97656;-76
2022/05/12 02:19:34;;;;;;;;;8.00;7.60;;;;;23.07;34.78;98422.69;6236931;27;97422;-76
2022/05/12 02:22:37;;;;;;;;;7.50;7.50;;;;;23.11;34.46;98417.41;6265402;27;96667;-77
2022/05/12 02:25:42;;;;;;;;;8.00;7.75;;;;;23.12;34.48;98419.81;6246784;27;97027;-77
2022/05/12 02:28:46;;;;;;;;;11.00;10.00;;;;;23.10;34.60;98419.34;6247718;27;97058;-76
2022/05/12 02:31:49;;;;;;;;;8.00;7.00;;;;;23.13;34.23;98413.19;6255742;27;98050;-76
2022/05/12 02:34:53;;;;;;;;;8.00;8.00;;;;;23.16;34.39;98415.34;6239218;28;98011;-76
2022/05/12 02:37:56;;;;;;;;;8.40;8.00;;;;;23.20;34.14;98412.75;6239134;27;98610;-76
2022/05/12 02:41:01;;;;;;;;;9.00;7.80;;;;;23.00;34.11;98381.13;6246307;27;96737;-76
2022/05/12 02:44:05;;;;;;;;;8.00;7.00;;;;;23.21;34.35;98415.19;6242213;27;97581;-75
2022/05/12 02:47:09;;;;;;;;;6.00;6.00;;;;;23.01;34.39;98398.41;6238994;27;99736;-74
2022/05/12 02:50:15;;;;;;;;;9.00;8.00;;;;;23.23;34.46;98417.63;6265192;27;97502;-75
2022/05/12 02:53:18;;;;;;;;;7.80;7.80;;;;;23.25;34.08;98418.13;6265030;27;98734;-76
2022/05/12 02:56:23;;;;;;;;;7.00;7.00;;;;;23.27;34.21;98419.41;6265815;27;96532;-75
2022/05/12 02:59:26;;;;;;;;;6.20;6.20;;;;;23.16;34.21;98404.34;6246449;27;96760;-75
2022/05/12 03:02:30;;;;;;;;;8.00;7.00;;;;;23.21;33.96;98401.44;6246343;27;97363;-76
2022/05/12 03:05:33;;;;;;;;;8.00;8.00;;;;;23.29;34.27;98421.88;6208419;28;97128;-77
2022/05/12 03:08:37;;;;;;;;;7.60;7.00;;;;;23.27;33.98;98415.84;6227575;27;96701;-76
2022/05/12 03:11:42;;;;;;;;;8.00;7.40;;;;;23.20;34.01;98402.56;6230740;27;97571;-75
2022/05/12 03:14:45;;;;;;;;;7.20;6.80;;;;;23.25;34.18;98409.88;6226431;27;99327;-75
2022/05/12 03:17:49;;;;;;;;;8.00;7.00;;;;;23.20;34.27;98402.56;6236146;27;98511;-75
2022/05/12 03:20:52;;;;;;;;;9.00;8.00;;;;;23.16;34.57;98412.59;6234937;27;97742;-74
2022/05/12 03:23:58;;;;;;;;;7.80;7.80;;;;;23.14;34.86;98412.09;6227278;27;97733;-75
2022/05/12 03:27:05;;;;;;;;;8.00;8.00;;;;;23.15;34.81;98405.47;6236547;27;99284;-75
2022/05/12 03:30:12;;;;;;;;;8.00;8.00;;;;;23.10;34.89;98413.03;6246976;27;97338;-75
2022/05/12 03:33:15;;;;;;;;;6.75;5.75;;;;;23.06;34.74;98410.09;6204142;27;97810;-75
2022/05/12 03:36:18;;;;;;;;;8.00;8.00;;;;;23.04;34.68;98409.59;6224847;28;96925;-75
2022/05/12 03:39:22;;;;;;;;;6.00;5.00;;;;;23.15;34.48;98413.72;6238890;28;96694;-75
2022/05/12 03:42:27;;;;;;;;;9.00;7.40;;;;;23.14;34.91;98414.00;6249830;27;96720;-74
2022/05/12 03:45:34;;;;;;;;;7.00;7.00;;;;;23.19;34.69;98411.94;6230312;27;98434;-74
2022/05/12 03:48:39;;;;;;;;;7.60;7.00;;;;;23.05;34.74;98383.72;6227133;27;97363;-74
2022/05/12 03:51:43;;;;;;;;;9.00;8.00;;;;;23.35;34.71;98412.34;6220268;28;98222;-75
2022/05/12 03:54:46;;;;;;;;;7.00;6.60;;;;;23.43;34.74;98419.00;6247445;27;96966;-75
2022/05/12 03:57:53;;;;;;;;;7.80;7.80;;;;;23.50;34.97;98409.22;6242322;27;98947;-77
2022/05/12 04:00:56;;;;;;;;;9.00;8.40;;;;;23.41;34.70;98380.81;6213320;27;98372;-75
2022/05/12 04:04:00;;;;;;;;;7.00;6.20;;;;;23.68;34.60;98405.41;6258419;27;96894;-74
2022/05/12 04:07:05;;;;;;;;;7.60;7.00;;;;;23.81;34.57;98413.84;6236690;27;98357;-75
2022/05/12 04:10:09;;;;;;;;;7.00;6.00;;;;;23.91;34.56;98419.06;6217918;27;97866;-76
2022/05/12 04:13:16;;;;;;;;;7.00;6.00;;;;;23.92;34.49;98413.22;6223073;27;99934;-75
2022/05/12 04:16:20;;;;;;;;;8.00;7.00;;;;;23.88;34.20;98379.22;6252284;27;98479;-75
2022/05/12 04:19:24;;;;;;;;;8.00;7.00;;;;;24.22;34.11;98410.72;6256163;27;96834;-75
2022/05/12 04:22:27;;;;;;;;;8.00;7.00;;;;;24.40;34.14;98410.41;6248045;27;97006;-76
2022/05/12 04:25:31;;;;;;;;;7.00;6.00;;;;;24.56;34.08;98414.31;6259138;27;96497;-76
2022/05/12 04:28:36;;;;;;;;;7.00;6.25;;;;;24.71;33.88;98414.97;6238541;27;97032;-75
2022/05/12 04:31:40;;;;;;;;;8.40;8.00;;;;;24.81;33.90;98414.63;6251470;27;97185;-75
2022/05/12 04:38:04;;;;;;;;;8.00;7.50;;;;;25.12;33.42;98411.69;6208351;27;97825;-75
2022/05/12 04:41:08;;;;;;;;;9.00;8.00;;;;;25.25;33.32;98411.50;6218563;28;97132;-74
2022/05/12 04:44:13;;;;;;;;;8.20;7.80;;;;;25.36;33.19;98414.72;6241554;27;98138;-76
2022/05/12 04:47:17;;;;;;;;;8.00;8.00;;;;;25.30;33.01;98403.03;6257723;27;96436;-77
2022/05/12 04:50:23;;;;;;;;;8.00;7.00;;;;;25.54;33.00;98419.00;6230903;27;97593;-73
2022/05/12 04:53:27;;;;;;;;;7.00;7.00;;;;;25.51;32.99;98418.88;6248382;27;97543;-73
2022/05/12 04:56:31;;;;;;;;;9.00;8.40;;;;;25.60;32.98;98414.97;6237207;27;97055;-74
2022/05/12 04:59:35;;;;;;;;;7.00;6.00;;;;;25.98;32.48;98425.16;6240075;27;99633;-75
2022/05/12 05:02:39;;;;;;;;;10.00;9.00;;;;;26.06;32.16;98404.97;6231706;27;98679;-74
2022/05/12 05:05:43;;;;;;;;;6.60;6.00;;;;;26.17;32.32;98417.25;6250707;27;97689;-75
2022/05/12 05:08:46;;;;;;;;;8.00;7.00;;;;;26.21;32.06;98413.50;6247042;27;97656;-74
2022/05/12 05:11:50;;;;;;;;;7.00;7.00;;;;;26.37;31.68;98415.69;6237313;27;98466;-76
2022/05/12 05:14:55;;;;;;;;;7.00;6.00;;;;;26.50;31.93;98411.81;6245346;27;97967;-74
2022/05/12 05:17:59;;;;;;;;;8.00;7.00;;;;;26.58;31.75;98403.47;6233888;27;97759;-74
2022/05/12 05:21:02;;;;;;;;;6.00;6.00;;;;;26.61;31.89;98413.03;6240968;27;98455;-74
2022/05/12 05:24:06;;;;;;;;;7.00;7.00;;;;;26.72;31.91;98404.00;6208092;28;97181;-74
2022/05/12 05:27:10;;;;;;;;;9.00;8.00;;;;;26.90;31.42;98406.63;6235073;27;97463;-75
2022/05/12 05:30:18;;;;;;;;;8.40;7.00;;;;;26.85;31.42;98401.28;6235525;28;96710;-74
2022/05/12 05:33:21;;;;;;;;;7.00;7.00;;;;;27.10;31.25;98403.00;6220059;27;97732;-75
2022/05/12 05:36:25;;;;;;;;;8.00;7.60;;;;;27.20;31.05;98412.84;6235450;27;98499;-75
2022/05/12 05:39:29;;;;;;;;;7.00;6.80;;;;;27.24;30.65;98420.09;6241014;27;96540;-75
2022/05/12 05:42:33;;;;;;;;;8.00;7.00;;;;;27.27;30.48;98405.56;6261927;27;97445;-74
2022/05/12 05:45:38;;;;;;;;;6.25;6.25;;;;;27.34;30.85;98416.91;6261880;27;97949;-74
2022/05/12 05:48:43;;;;;;;;;8.80;8.00;;;;;27.42;30.36;98415.97;6226842;27;97784;-75
2022/05/12 05:55:07;;;;;;;;;9.60;7.20;;;;;27.67;30.06;98416.03;6242692;27;96382;-74
2022/05/12 05:58:11;;;;;;;;;6.00;6.00;;;;;27.88;30.30;98406.47;6266472;27;96617;-75
2022/05/12 06:01:17;;;;;;;;;8.50;8.00;;;;;27.77;30.31;98419.16;6246724;27;99827;-75
2022/05/12 06:04:21;;;;;;;;;7.00;7.00;;;;;28.06;30.12;98418.13;6239357;28;98594;-75
2022/05/12 06:07:25;;;;;;;;;7.00;7.00;;;;;28.17;29.67;98415.72;6245197;27;98228;-75
2022/05/12 06:10:29;;;;;;;;;7.80;6.20;;;;;28.07;29.52;98432.78;6206167;27;99394;-75
2022/05/12 06:13:35;;;;;;;;;8.50;7.00;;;;;28.03;29.24;98424.38;6254771;27;97099;-74
2022/05/12 06:16:41;;;;;;;;;8.00;7.00;;;;;28.28;29.30;98428.75;6237649;27;96749;-75
2022/05/12 06:19:45;;;;;;;;;7.40;7.40;;;;;28.28;29.54;98426.00;6243152;27;98155;-75
2022/05/12 06:22:48;;;;;;;;;6.40;6.00;;;;;28.43;29.56;98425.28;6238195;27;97856;-74
2022/05/12 06:25:52;;;;;;;;;8.00;7.25;;;;;28.44;29.41;98428.84;6222419;28;96816;-75
2022/05/12 06:28:56;;;;;;;;;8.00;8.00;;;;;28.31;29.62;98422.50;6231811;27;97708;-74
2022/05/12 06:32:02;;;;;;;;;7.20;7.00;;;;;28.43;29.74;98425.28;6232299;27;96877;-74
2022/05/12 06:35:07;;;;;;;;;8.00;8.00;;;;;28.67;29.26;98431.91;6236189;27;98390;-75
2022/05/12 06:38:11;;;;;;;;;7.60;7.00;;;;;28.66;29.57;98411.69;6245146;27;97538;-75
2022/05/12 06:41:15;;;;;;;;;9.00;8.00;;;;;28.69;28.93;98424.81;6220556;27;97887;-75
2022/05/12 06:44:19;;;;;;;;;9.25;9.00;;;;;28.92;28.74;98429.88;6249410;27;96742;-74
2022/05/12 06:47:24;;;;;;;;;10.00;10.00;;;;;29.07;29.09;98431.88;6244496;27;97580;-75
2022/05/12 06:50:29;;;;;;;;;11.40;9.60;;;;;29.27;28.66;98434.41;6221605;28;97851;-75
2022/05/12 06:53:33;;;;;;;;;9.00;8.00;;;;;29.49;28.77;98432.25;6249527;27;96751;-74
2022/05/12 06:56:43;;;;;;;;;7.60;7.60;;;;;29.66;28.46;98429.91;6238598;28;96603;-74
2022/05/12 06:59:46;;;;;;;;;8.00;7.40;;;;;29.94;28.31;98431.84;6241477;27;96386;-73
2022/05/12 07:02:52;;;;;;;;;7.00;6.50;;;;;29.98;27.94;98427.97;6224400;27;96794;-73
2022/05/12 07:05:57;;;;;;;;;7.00;7.00;;;;;30.18;27.53;98416.91;6240082;28;96922;-73
2022/05/12 07:09:00;;;;;;;;;9.00;8.00;;;;;30.42;27.38;98422.22;6234541;27;98470;-74
2022/05/12 07:12:04;;;;;;;;;7.00;7.00;;;;;30.49;26.93;98416.88;6251863;27;97589;-74
2022/05/12 07:15:09;;;;;;;;;8.00;7.00;;;;;30.75;27.06;98427.34;6229687;27;99090;-75
2022/05/12 07:18:14;;;;;;;;;7.00;6.00;;;;;30.73;26.15;98429.69;6247628;27;97988;-75
2022/05/12 07:28:10;;;;;;;;;7.25;6.00;;;;;30.78;25.01;98427.44;6202466;28;98751;-75
2022/05/12 07:31:14;;;;;;;;;6.00;5.00;;;;;30.90;24.62;98448.72;6234578;27;96787;-75
2022/05/12 07:34:20;;;;;;;;;5.40;5.40;;;;;31.02;24.04;98440.25;6221691;27;98532;-75
2022/05/12 07:37:24;;;;;;;;;5.60;5.60;;;;;31.15;24.24;98435.34;6239462;28;96378;-75
2022/05/12 07:40:28;;;;;;;;;7.00;6.00;;;;;31.33;24.05;98428.91;6220745;28;96905;-75
2022/05/12 07:43:31;;;;;;;;;5.50;5.00;;;;;31.52;23.92;98419.69;6239251;28;96843;-73
2022/05/12 07:46:35;;;;;;;;;6.00;6.00;;;;;31.44;23.99;98419.97;6238682;28;96386;-73
2022/05/12 07:49:41;;;;;;;;;5.60;5.00;;;;;31.80;24.02;98411.88;6238988;28;96960;-75
2022/05/12 07:52:44;;;;;;;;;6.75;6.00;;;;;31.75;23.34;98419.75;6263279;27;96522;-73
2022/05/12 07:55:49;;;;;;;;;7.00;6.00;;;;;31.71;23.13;98422.47;6245759;27;96731;-74
2022/05/12 07:58:54;;;;;;;;;6.50;6.00;;;;;31.80;23.24;98417.47;6264079;27;97391;-74
2022/05/12 08:01:58;;;;;;;;;5.80;5.80;;;;;32.05;23.37;98423.44;6228420;28;99960;-75
2022/05/12 08:05:05;;;;;;;;;5.75;5.75;;;;;32.04;23.30;98413.44;6221051;28;98263;-75
2022/05/12 08:08:09;;;;;;;;;6.00;6.00;;;;;32.35;23.72;98422.72;6203908;28;96716;-74
2022/05/12 08:11:13;;;;;;;;;7.00;7.00;;;;;32.15;22.77;98378.19;6249034;27;96413;-75
2022/05/12 08:14:17;;;;;;;;;7.00;6.00;;;;;32.64;22.80;98411.59;6263412;27;96595;-74
2022/05/12 08:17:20;;;;;;;;;6.00;6.00;;;;;32.83;22.74;98420.97;6244784;27;96575;-74
2022/05/12 08:20:26;;;;;;;;;6.80;5.80;;;;;33.18;23.08;98417.84;6258116;27;98154;-75
2022/05/12 08:23:29;;;;;;;;;7.00;7.00;;;;;33.48;22.43;98427.72;6252420;27;97085;-75
2022/05/12 08:26:33;;;;;;;;;6.00;6.00;;;;;33.67;22.56;98439.88;6245544;27;97886;-75
2022/05/12 08:29:36;;;;;;;;;5.00;5.00;;;;;33.33;21.23;98427.97;6262847;27;97068;-75
2022/05/12 08:32:39;;;;;;;;;5.80;5.00;;;;;33.65;21.68;98431.88;6244497;27;98365;-74
2022/05/12 08:35:45;;;;;;;;;5.00;5.00;;;;;33.87;21.17;98444.06;6263431;27;96539;-75
2022/05/12 08:38:48;;;;;;;;;6.40;6.40;;;;;33.64;21.28;98440.63;6245188;27;97592;-73
2022/05/12 08:41:58;;;;;;;;;6.40;5.00;;;;;33.77;21.46;98440.00;6229885;28;97921;-75
2022/05/12 08:45:04;;;;;;;;;7.60;7.00;;;;;33.83;21.31;98437.66;6220485;28;98058;-74
2022/05/12 08:48:12;;;;;;;;;7.00;7.00;;;;;34.14;21.45;98442.69;6238403;28;98094;-74
2022/05/12 08:51:20;;;;;;;;;6.00;6.00;;;;;34.33;21.27;98442.47;6261915;27;96863;-74
2022/05/12 08:54:26;;;;;;;;;7.00;7.00;;;;;34.50;21.53;98437.38;6263172;27;96441;-74
2022/05/12 08:57:34;;;;;;;;;6.00;5.00;;;;;34.46;21.25;98454.13;6245136;27;97484;-75
2022/05/12 09:00:45;;;;;;;;;7.00;7.00;;;;;34.07;21.54;98469.81;6209467;28;96984;-74
2022/05/12 09:03:59;;;;;;;;;6.00;5.00;;;;;33.92;21.83;98454.91;6219356;28;97039;-75
2022/05/12 09:07:12;;;;;;;;;5.00;5.00;;;;;34.08;21.76;98449.03;6220086;28;96831;-74
2022/05/12 09:10:33;;;;;;;;;6.00;6.00;;;;;34.18;21.63;98463.13;6241772;27;97518;-73
2022/05/12 09:13:43;;;;;;;;;7.00;6.00;;;;;33.90;22.18;98460.91;6237171;28;97170;-76
2022/05/12 09:16:52;;;;;;;;;6.00;6.00;;;;;33.73;22.08;98455.13;6237393;28;97641;-75
2022/05/12 09:19:56;;;;;;;;;5.00;4.60;;;;;33.63;22.46;98450.22;6218767;28;96700;-74
2022/05/12 09:23:02;;;;;;;;;7.00;6.60;;;;;33.79;22.60;98465.59;6219178;27;96699;-75
2022/05/12 09:26:31;;;;;;;;;7.00;6.00;;;;;33.48;22.76;98455.66;6201558;27;97547;-75
2022/05/12 09:29:44;;;;;;;;;7.00;6.20;;;;;33.28;22.98;98426.31;6220325;27;100504;-75
2022/05/12 09:32:58;;;;;;;;;6.25;6.25;;;;;33.53;23.54;98456.53;6218916;28;97444;-74
2022/05/12 09:36:05;;;;;;;;;5.60;5.00;;;;;33.07;22.54;98470.75;6219157;28;97053;-75
2022/05/12 09:39:10;;;;;;;;;6.00;5.00;;;;;33.14;22.58;98470.00;6220507;27;99261;-75
2022/05/12 09:42:36;;;;;;;;;7.00;6.00;;;;;32.79;22.98;98460.03;6259998;27;96867;-76
2022/05/12 09:45:40;;;;;;;;;6.40;6.00;;;;;32.98;23.25;98450.69;6251476;27;98142;-75
2022/05/12 09:48:45;;;;;;;;;7.00;6.00;;;;;33.15;22.96;98464.03;6237666;27;98458;-73
2022/05/12 09:51:48;;;;;;;;;7.20;6.20;;;;;33.37;23.36;98448.38;6255927;27;96581;-76
2022/05/12 09:55:11;;;;;;;;;6.50;6.00;;;;;33.49;22.47;98470.44;6243217;27;97591;-75
2022/05/12 09:58:33;;;;;;;;;5.50;5.00;;;;;33.60;22.13;98464.97;6261688;27;97533;-75
2022/05/12 10:01:50;;;;;;;;;5.00;4.80;;;;;33.41;22.28;98464.00;6261954;27;96690;-74
2022/05/12 10:08:39;;;;;;;;;6.00;6.00;;;;;33.56;22.19;98475.31;6144727;28;98694;-75
2022/05/12 10:11:53;;;;;;;;;6.75;5.75;;;;;33.33;21.90;98472.69;6234832;28;96491;-75
2022/05/12 10:15:00;;;;;;;;;5.00;5.00;;;;;33.47;22.07;98468.06;6219043;27;97074;-76
2022/05/12 10:18:14;;;;;;;;;5.00;5.00;;;;;33.60;21.83;98479.75;6201396;28;97496;-75
2022/05/12 10:21:24;;;;;;;;;5.40;5.00;;;;;33.73;22.29;98475.50;6236235;28;97441;-76
2022/05/12 10:24:42;;;;;;;;;5.00;5.00;;;;;33.69;21.59;98479.47;6251204;27;96792;-74
2022/05/12 10:27:54;;;;;;;;;6.00;5.00;;;;;33.41;21.53;98464.00;6218633;28;96316;-74
2022/05/12 10:31:10;;;;;;;;;5.00;5.00;;;;;33.83;21.09;98466.41;6217954;28;97803;-76
2022/05/12 10:34:30;;;;;;;;;6.00;6.00;;;;;33.81;21.35;98470.81;6201449;28;97126;-75
2022/05/12 10:37:49;;;;;;;;;6.60;6.00;;;;;33.87;20.64;98458.03;6259829;27;96453;-74
2022/05/12 10:40:57;;;;;;;;;5.80;5.80;;;;;33.78;20.71;98446.38;6265712;27;96518;-75
2022/05/12 10:44:30;;;;;;;;;7.00;6.00;;;;;33.46;20.74;98452.47;6247175;27;100147;-76
2022/05/12 10:48:24;;;;;;;;;6.00;6.00;;;;;33.74;20.94;98454.75;6241952;27;97330;-75
2022/05/12 10:51:43;;;;;;;;;6.60;6.60;;;;;33.86;20.92;98450.88;6176166;28;96536;-74
2022/05/12 10:55:02;;;;;;;;;7.00;7.00;;;;;33.66;21.01;98457.84;6240179;28;96452;-75
2022/05/12 10:58:21;;;;;;;;;5.00;5.00;;;;;33.80;20.71;98461.59;6261883;27;96967;-74
2022/05/12 11:01:32;;;;;;;;;7.00;6.00;;;;;33.58;20.91;98468.13;6229830;27;97325;-75
2022/05/12 11:04:41;;;;;;;;;7.00;6.50;;;;;33.86;20.87;98478.84;6235357;28;97023;-74
2022/05/12 11:07:50;;;;;;;;;8.00;6.60;;;;;33.81;20.65;98479.19;6239913;28;96481;-75
2022/05/12 11:10:58;;;;;;;;;6.00;6.00;;;;;33.92;20.89;98466.09;6221464;28;96694;-75
2022/05/12 11:14:08;;;;;;;;;7.00;6.60;;;;;34.09;20.91;98471.03;6227557;27;96619;-75
2022/05/12 11:17:19;;;;;;;;;7.00;6.00;;;;;34.12;20.50;98478.63;6264763;27;97255;-75
2022/05/12 11:20:26;;;;;;;;;6.00;6.00;;;;;33.96;21.01;98464.16;6264763;27;96523;-75
2022/05/12 11:23:50;;;;;;;;;7.75;6.75;;;;;34.19;20.87;98473.16;6246054;27;97875;-76
2022/05/12 11:27:06;;;;;;;;;8.25;6.75;;;;;34.10;20.98;98469.03;6264155;27;97439;-75
2022/05/12 11:30:31;;;;;;;;;9.00;8.00;;;;;33.91;21.05;98490.47;6264442;27;96919;-75
2022/05/12 11:33:39;;;;;;;;;8.00;8.00;;;;;33.85;21.14;98477.22;6255283;27;97474;-75
2022/05/12 11:36:47;;;;;;;;;6.50;6.50;;;;;33.51;21.67;98480.06;6233267;28;97993;-74
2022/05/12 11:39:56;;;;;;;;;8.00;7.00;;;;;33.45;21.71;98491.97;6220945;28;99060;-74
2022/05/12 11:46:51;;;;;;;;;8.00;8.00;;;;;33.69;21.88;98476.66;6239343;28;97448;-75
2022/05/12 11:50:09;;;;;;;;;8.00;7.80;;;;;33.72;21.51;98482.28;6262862;27;96497;-76
2022/05/12 11:53:17;;;;;;;;;9.00;8.50;;;;;34.08;21.61;98482.59;6245471;27;97885;-76
2022/05/12 11:56:39;;;;;;;;;7.00;6.00;;;;;33.89;21.31;98484.44;6246193;27;97401;-74
2022/05/12 11:59:50;;;;;;;;;8.75;8.25;;;;;34.03;21.58;98492.16;6264142;27;97473;-75
2022/05/12 12:02:54;;;;;;;;;9.20;7.20;;;;;34.04;21.67;98487.38;6263794;27;97483;-74
2022/05/12 12:06:03;;;;;;;;;9.00;9.00;;;;;34.12;21.54;98489.84;6241583;27;97201;-74
2022/05/12 12:09:50;;;;;;;;;7.00;7.00;;;;;34.14;21.40;98495.06;6220374;28;98350;-74
2022/05/12 12:13:03;;;;;;;;;8.00;7.60;;;;;33.61;22.03;98509.31;6238314;28;96681;-73
2022/05/12 12:16:10;;;;;;;;;7.00;7.00;;;;;32.74;22.79;98493.06;6242155;27;96956;-77
2022/05/12 12:19:43;;;;;;;;;8.00;7.40;;;;;32.80;22.98;98503.50;6245065;27;96797;-75
2022/05/12 12:22:50;;;;;;;;;8.00;7.60;;;;;32.79;23.78;98499.13;6263853;27;96548;-73
2022/05/12 12:26:02;;;;;;;;;7.00;6.40;;;;;32.84;23.32;98509.16;6245062;27;98716;-74
2022/05/12 12:29:17;;;;;;;;;8.20;6.20;;;;;33.00;23.34;98513.34;6244395;27;96863;-75
2022/05/12 12:32:29;;;;;;;;;8.40;8.00;;;;;33.34;23.58;98514.19;6262155;27;97518;-76
2022/05/12 12:35:49;;;;;;;;;7.00;7.00;;;;;33.78;22.60;98496.72;6228755;27;96796;-75
2022/05/12 12:39:10;;;;;;;;;8.00;7.00;;;;;34.32;22.32;98510.00;6245175;27;97498;-76
2022/05/12 12:42:39;;;;;;;;;8.00;7.00;;;;;34.46;22.15;98506.50;6254261;27;97353;-75
2022/05/12 12:45:49;;;;;;;;;9.60;8.00;;;;;34.70;21.17;98509.50;6256030;27;97565;-76
2022/05/12 12:48:58;;;;;;;;;8.20;7.00;;;;;34.59;21.32;98525.41;6244254;27;98718;-76
2022/05/12 12:52:08;;;;;;;;;7.00;6.00;;;;;34.63;21.17;98495.44;6244010;27;97821;-75
2022/05/12 12:58:44;;;;;;;;;6.00;6.00;;;;;34.34;21.02;98504.84;6241909;27;97819;-76
2022/05/12 13:01:52;;;;;;;;;7.00;7.00;;;;;33.96;21.54;98503.31;6250432;27;97365;-72
2022/05/12 13:05:01;;;;;;;;;6.80;6.20;;;;;34.15;21.45;98517.06;6243226;27;99535;-77
2022/05/12 13:08:08;;;;;;;;;6.00;6.00;;;;;34.15;21.51;98521.84;6247079;27;96551;-74
2022/05/12 13:11:20;;;;;;;;;5.00;5.00;;;;;34.08;21.84;98522.56;6237501;28;97740;-74
2022/05/12 13:14:24;;;;;;;;;4.25;4.25;;;;;33.94;21.53;98526.06;6244075;27;96619;-73
2022/05/12 13:17:34;;;;;;;;;6.00;5.00;;;;;33.78;21.40;98521.88;6237084;27;97427;-73
2022/05/12 13:20:42;;;;;;;;;6.00;5.40;;;;;33.68;21.47;98517.78;6228590;27;97422;-74
2022/05/12 13:23:59;;;;;;;;;6.50;6.50;;;;;33.65;21.84;98503.75;6240245;27;98731;-74
2022/05/12 13:27:08;;;;;;;;;6.20;6.00;;;;;33.47;21.72;98506.38;6242452;27;98367;-72
2022/05/12 13:30:16;;;;;;;;;6.50;6.50;;;;;33.60;22.04;98516.09;6242903;27;98595;-76
2022/05/12 13:33:23;;;;;;;;;6.00;6.00;;;;;33.56;21.91;98518.03;6226451;27;98434;-76
2022/05/12 13:36:32;;;;;;;;;8.50;6.50;;;;;33.41;22.47;98519.06;6236389;27;96687;-75
2022/05/12 13:39:51;;;;;;;;;8.00;6.00;;;;;33.53;22.54;98518.00;6218739;28;96494;-76
2022/05/12 13:42:56;;;;;;;;;8.00;7.40;;;;;33.47;22.28;98509.97;6236873;28;96615;-74
2022/05/12 13:46:05;;;;;;;;;9.00;8.00;;;;;33.32;21.96;98512.97;6238087;27;96558;-75
2022/05/12 13:49:11;;;;;;;;;6.00;6.00;;;;;33.15;22.45;98524.69;6243585;27;99534;-75
2022/05/12 13:52:18;;;;;;;;;8.20;8.00;;;;;32.93;22.45;98530.03;6243967;27;97248;-75
2022/05/12 13:55:26;;;;;;;;;9.00;7.00;;;;;32.65;22.81;98499.69;6262056;27;96493;-73
2022/05/12 13:58:30;;;;;;;;;7.00;6.00;;;;;32.90;22.81;98527.16;6244598;27;97551;-74
2022/05/12 14:01:36;;;;;;;;;8.50;7.00;;;;;32.90;23.14;98527.97;6250021;27;98103;-73
2022/05/12 14:04:43;;;;;;;;;7.00;6.00;;;;;32.81;23.35;98507.91;6224751;27;98602;-75
2022/05/12 14:08:03;;;;;;;;;7.00;6.00;;;;;33.03;23.69;98525.75;6242082;27;96646;-74
2022/05/12 14:11:11;;;;;;;;;9.00;8.20;;;;;33.21;23.80;98531.59;6224378;27;98282;-73
2022/05/12 14:20:57;;;;;;;;;8.00;7.00;;;;;33.52;23.41;98547.97;6239807;28;98013;-74
2022/05/12 14:24:00;;;;;;;;;8.00;7.00;;;;;33.56;23.46;98554.38;6240492;27;96487;-74
2022/05/12 14:27:05;;;;;;;;;8.60;8.00;;;;;33.57;23.09;98546.81;6246713;27;96765;-74
2022/05/12 14:30:11;;;;;;;;;7.00;6.00;;;;;33.56;23.19;98561.97;6246715;27;99617;-74
2022/05/12 14:33:15;;;;;;;;;8.75;7.00;;;;;33.38;23.60;98540.19;6265381;27;96670;-74
2022/05/12 14:36:18;;;;;;;;;7.00;6.40;;;;;33.50;23.35;98559.50;6225854;27;99651;-75
2022/05/12 14:39:22;;;;;;;;;8.00;7.00;;;;;33.40;23.39;98560.19;6222413;28;97041;-75
2022/05/12 14:42:25;;;;;;;;;9.00;8.75;;;;;33.41;23.30;98564.59;6244111;27;97448;-74
2022/05/12 14:45:30;;;;;;;;;7.80;7.00;;;;;33.22;23.68;98564.75;6240045;27;98130;-74
2022/05/12 14:48:43;;;;;;;;;7.00;7.00;;;;;33.04;23.75;98569.25;6250363;27;97484;-74
2022/05/12 14:51:46;;;;;;;;;7.50;7.00;;;;;32.85;23.76;98553.44;6229956;27;96859;-74
2022/05/12 14:54:50;;;;;;;;;6.00;5.75;;;;;32.73;23.91;98564.81;6238097;27;99868;-75
2022/05/12 14:57:54;;;;;;;;;7.00;6.00;;;;;32.74;23.85;98558.06;6226247;27;97120;-76
2022/05/12 15:00:59;;;;;;;;;8.20;6.80;;;;;32.73;23.67;98573.19;6221776;28;96501;-75
2022/05/12 15:04:02;;;;;;;;;5.00;5.00;;;;;32.71;23.87;98567.19;6242136;27;97216;-74
2022/05/12 15:07:06;;;;;;;;;5.00;5.00;;;;;32.70;23.62;98584.28;6240031;27;96571;-74
2022/05/12 15:10:12;;;;;;;;;5.00;5.00;;;;;32.45;23.95;98578.31;6205192;28;98616;-75